地図

経路データ

SID SEASON NUMBER BASIN SUBBASIN NAME ISO_TIME NATURE LAT LON WMO_WIND WMO_PRES WMO_AGENCY TRACK_TYPE DIST2LAND LANDFALL IFLAG USA_AGENCY USA_ATCF_ID USA_LAT USA_LON USA_RECORD USA_STATUS USA_WIND USA_PRES USA_SSHS USA_R34_NE USA_R34_SE USA_R34_SW USA_R34_NW USA_R50_NE USA_R50_SE USA_R50_SW USA_R50_NW USA_R64_NE USA_R64_SE USA_R64_SW USA_R64_NW USA_POCI USA_ROCI USA_RMW USA_EYE TOKYO_LAT TOKYO_LON TOKYO_GRADE TOKYO_WIND TOKYO_PRES TOKYO_R50_DIR TOKYO_R50_LONG TOKYO_R50_SHORT TOKYO_R30_DIR TOKYO_R30_LONG TOKYO_R30_SHORT TOKYO_LAND CMA_LAT CMA_LON CMA_CAT CMA_WIND CMA_PRES HKO_LAT HKO_LON HKO_CAT HKO_WIND HKO_PRES NEWDELHI_LAT NEWDELHI_LON NEWDELHI_GRADE NEWDELHI_WIND NEWDELHI_PRES NEWDELHI_CI NEWDELHI_DP NEWDELHI_POCI REUNION_LAT REUNION_LON REUNION_TYPE REUNION_WIND REUNION_PRES REUNION_TNUM REUNION_CI REUNION_RMW REUNION_R34_NE REUNION_R34_SE REUNION_R34_SW REUNION_R34_NW REUNION_R50_NE REUNION_R50_SE REUNION_R50_SW REUNION_R50_NW REUNION_R64_NE REUNION_R64_SE REUNION_R64_SW REUNION_R64_NW BOM_LAT BOM_LON BOM_TYPE BOM_WIND BOM_PRES BOM_TNUM BOM_CI BOM_RMW BOM_R34_NE BOM_R34_SE BOM_R34_SW BOM_R34_NW BOM_R50_NE BOM_R50_SE BOM_R50_SW BOM_R50_NW BOM_R64_NE BOM_R64_SE BOM_R64_SW BOM_R64_NW BOM_ROCI BOM_POCI BOM_EYE BOM_POS_METHOD BOM_PRES_METHOD NADI_LAT NADI_LON NADI_CAT NADI_WIND NADI_PRES WELLINGTON_LAT WELLINGTON_LON WELLINGTON_WIND WELLINGTON_PRES DS824_LAT DS824_LON DS824_STAGE DS824_WIND DS824_PRES TD9636_LAT TD9636_LON TD9636_STAGE TD9636_WIND TD9636_PRES TD9635_LAT TD9635_LON TD9635_WIND TD9635_PRES TD9635_ROCI NEUMANN_LAT NEUMANN_LON NEUMANN_CLASS NEUMANN_WIND NEUMANN_PRES MLC_LAT MLC_LON MLC_CLASS MLC_WIND MLC_PRES USA_GUST BOM_GUST BOM_GUST_PER REUNION_GUST REUNION_GUST_PER USA_SEAHGT USA_SEARAD_NE USA_SEARAD_SE USA_SEARAD_SW USA_SEARAD_NW STORM_SPEED STORM_DIR
1896266N17298 1896 35 NA CS NOT_NAMED 1896-09-22 06:00:00 TS 16.7000 -61.8000 35 hurdat_atl main 436 388 O_____________ hurdat_atl AL041896 16.7000 -61.8000 TS 35 0 10 270
1896266N17298 1896 35 NA CS NOT_NAMED 1896-09-22 09:00:00 TS 16.7002 -62.2975 main 388 341 P_____________ AL041896 16.7002 -62.2975 TS 35 0 10 270
1896266N17298 1896 35 NA CS NOT_NAMED 1896-09-22 12:00:00 TS 16.7000 -62.8000 35 hurdat_atl main 341 296 O_____________ hurdat_atl AL041896 16.7000 -62.8000 TS 35 0 10 270
1896266N17298 1896 35 NA CS NOT_NAMED 1896-09-22 15:00:00 TS 16.6999 -63.3075 main 296 254 P_____________ AL041896 16.6999 -63.3075 TS 35 0 10 270
1896266N17298 1896 35 NA CS NOT_NAMED 1896-09-22 18:00:00 TS 16.7000 -63.8000 35 hurdat_atl main 254 223 O_____________ hurdat_atl AL041896 16.7000 -63.8000 TS 35 0 9 270
1896266N17298 1896 35 NA CS NOT_NAMED 1896-09-22 21:00:00 TS 16.6924 -64.2575 main 215 186 P_____________ AL041896 16.6924 -64.2575 TS 37 0 9 270
1896266N17298 1896 35 NA CS NOT_NAMED 1896-09-23 00:00:00 TS 16.7000 -64.7000 40 hurdat_atl main 186 163 O_____________ hurdat_atl AL041896 16.7000 -64.7000 TS 40 0 9 274
1896266N17298 1896 35 NA CS NOT_NAMED 1896-09-23 03:00:00 TS 16.7499 -65.1499 main 163 135 P_____________ AL041896 16.7499 -65.1499 TS 40 0 9 277
1896266N17298 1896 35 NA CS NOT_NAMED 1896-09-23 06:00:00 TS 16.8000 -65.6000 40 hurdat_atl main 135 124 O_____________ hurdat_atl AL041896 16.8000 -65.6000 TS 40 0 9 274
1896266N17298 1896 35 NA CS NOT_NAMED 1896-09-23 09:00:00 TS 16.8074 -66.0575 main 123 123 P_____________ AL041896 16.8074 -66.0575 TS 42 0 9 270
1896266N17298 1896 35 NA CS NOT_NAMED 1896-09-23 12:00:00 TS 16.8000 -66.5000 45 hurdat_atl main 127 123 O_____________ hurdat_atl AL041896 16.8000 -66.5000 TS 45 0 8 269
1896266N17298 1896 35 NA CS NOT_NAMED 1896-09-23 15:00:00 TS 16.7924 -66.9150 main 123 123 P_____________ AL041896 16.7924 -66.9150 TS 45 0 8 270
1896266N17298 1896 35 NA CS NOT_NAMED 1896-09-23 18:00:00 TS 16.8000 -67.3000 45 hurdat_atl main 123 123 O_____________ hurdat_atl AL041896 16.8000 -67.3000 TS 45 0 7 275
1896266N17298 1896 35 NA CS NOT_NAMED 1896-09-23 21:00:00 TS 16.8499 -67.6574 main 134 123 P_____________ AL041896 16.8499 -67.6574 TS 47 0 7 278
1896266N17298 1896 35 NA CS NOT_NAMED 1896-09-24 00:00:00 TS 16.9000 -68.0000 50 hurdat_atl main 140 140 O_____________ hurdat_atl AL041896 16.9000 -68.0000 TS 50 0 6 274
1896266N17298 1896 35 NA CS NOT_NAMED 1896-09-24 03:00:00 TS 16.8998 -68.3201 main 148 145 P_____________ AL041896 16.8998 -68.3201 TS 50 0 7 270
1896266N17298 1896 35 NA CS NOT_NAMED 1896-09-24 06:00:00 TS 16.9000 -68.7000 50 hurdat_atl main 145 145 O_____________ hurdat_atl AL041896 16.9000 -68.7000 TS 50 0 8 273
1896266N17298 1896 35 NA CS NOT_NAMED 1896-09-24 09:00:00 TS 16.9424 -69.2050 main 151 140 P_____________ AL041896 16.9424 -69.2050 TS 52 0 11 275
1896266N17298 1896 35 NA CS NOT_NAMED 1896-09-24 12:00:00 TS 17.0000 -69.8000 55 hurdat_atl main 140 120 O_____________ hurdat_atl AL041896 17.0000 -69.8000 TS 55 0 12 276
1896266N17298 1896 35 NA CS NOT_NAMED 1896-09-24 15:00:00 TS 17.0574 -70.4350 main 120 64 P_____________ AL041896 17.0574 -70.4350 TS 55 0 12 275
1896266N17298 1896 35 NA CS NOT_NAMED 1896-09-24 18:00:00 TS 17.1000 -71.1000 55 hurdat_atl main 64 55 O_____________ hurdat_atl AL041896 17.1000 -71.1000 TS 55 0 13 272
1896266N17298 1896 35 NA CS NOT_NAMED 1896-09-24 21:00:00 TS 17.0999 -71.7577 main 70 70 P_____________ AL041896 17.0999 -71.7577 TS 57 0 12 270
1896266N17298 1896 35 NA CS NOT_NAMED 1896-09-25 00:00:00 TS 17.1000 -72.4000 60 hurdat_atl main 115 111 O_____________ hurdat_atl AL041896 17.1000 -72.4000 TS 60 0 12 272
1896266N17298 1896 35 NA CS NOT_NAMED 1896-09-25 03:00:00 TS 17.1422 -73.0000 main 113 91 P_____________ AL041896 17.1422 -73.0000 TS 60 0 12 275
1896266N17298 1896 35 NA CS NOT_NAMED 1896-09-25 06:00:00 TS 17.2000 -73.6000 60 hurdat_atl main 91 89 O_____________ hurdat_atl AL041896 17.2000 -73.6000 TS 60 0 12 275
1896266N17298 1896 35 NA CS NOT_NAMED 1896-09-25 09:00:00 TS 17.2499 -74.2425 main 94 89 P_____________ AL041896 17.2499 -74.2425 TS 62 0 12 275
1896266N17298 1896 35 NA CS NOT_NAMED 1896-09-25 12:00:00 TS 17.3000 -74.9000 65 hurdat_atl main 123 100 O_____________ hurdat_atl AL041896 17.3000 -74.9000 HU 65 1 13 274
1896266N17298 1896 35 NA CS NOT_NAMED 1896-09-25 15:00:00 TS 17.3349 -75.5577 main 92 55 P_____________ AL041896 17.3349 -75.5577 HU 65 1 12 275
1896266N17298 1896 35 NA CS NOT_NAMED 1896-09-25 18:00:00 TS 17.4000 -76.2000 65 hurdat_atl main 55 39 O_____________ hurdat_atl AL041896 17.4000 -76.2000 HU 65 1 12 280
1896266N17298 1896 35 NA CS NOT_NAMED 1896-09-25 21:00:00 TS 17.5347 -76.8000 main 39 0 P_____________ AL041896 17.5347 -76.8000 HU 67 1 12 285
1896266N17298 1896 35 NA CS NOT_NAMED 1896-09-26 00:00:00 TS 17.7000 -77.4000 70 hurdat_atl main 15 11 O_____________ hurdat_atl AL041896 17.7000 -77.4000 HU 70 1 12 284
1896266N17298 1896 35 NA CS NOT_NAMED 1896-09-26 03:00:00 TS 17.8349 -78.0428 main 30 30 P_____________ AL041896 17.8349 -78.0428 HU 72 1 13 284
1896266N17298 1896 35 NA CS NOT_NAMED 1896-09-26 06:00:00 TS 18.0000 -78.7000 75 hurdat_atl main 38 38 O_____________ hurdat_atl AL041896 18.0000 -78.7000 HU 75 1 13 288
1896266N17298 1896 35 NA CS NOT_NAMED 1896-09-26 09:00:00 TS 18.2501 -79.3797 main 106 106 P_____________ AL041896 18.2501 -79.3797 HU 77 1 13 292
1896266N17298 1896 35 NA CS NOT_NAMED 1896-09-26 12:00:00 TS 18.5000 -80.0000 80 hurdat_atl main 172 172 O_____________ hurdat_atl AL041896 18.5000 -80.0000 HU 80 1 11 292
1896266N17298 1896 35 NA CS NOT_NAMED 1896-09-26 15:00:00 TS 18.6646 -80.4728 main 228 228 P_____________ AL041896 18.6646 -80.4728 HU 82 1 9 289
1896266N17298 1896 35 NA CS NOT_NAMED 1896-09-26 18:00:00 TS 18.8000 -80.9000 85 hurdat_atl main 272 272 O_____________ hurdat_atl AL041896 18.8000 -80.9000 HU 85 2 9 288
1896266N17298 1896 35 NA CS NOT_NAMED 1896-09-26 21:00:00 TS 18.9500 -81.4000 main 315 273 P_____________ AL041896 18.9500 -81.4000 HU 87 2 10 288
1896266N17298 1896 35 NA CS NOT_NAMED 1896-09-27 00:00:00 TS 19.1000 -81.9000 90 hurdat_atl main 273 251 O_____________ hurdat_atl AL041896 19.1000 -81.9000 HU 90 2 10 288
1896266N17298 1896 35 NA CS NOT_NAMED 1896-09-27 03:00:00 TS 19.2498 -82.3576 main 249 223 P_____________ AL041896 19.2498 -82.3576 HU 92 2 9 289
1896266N17298 1896 35 NA CS NOT_NAMED 1896-09-27 06:00:00 TS 19.4000 -82.8000 95 hurdat_atl main 223 223 O_____________ hurdat_atl AL041896 19.4000 -82.8000 HU 95 2 11 281
1896266N17298 1896 35 NA CS NOT_NAMED 1896-09-27 09:00:00 TS 19.4506 -83.4767 main 224 224 P_____________ AL041896 19.5426 -83.2800 HU 97 3 11 280
1896266N17298 1896 35 NA CS NOT_NAMED 1896-09-27 12:00:00 TS 19.6000 -84.0000 100 hurdat_atl main 236 224 O____________O hurdat_atl AL041896 19.7000 -83.7000 HU 100 3 19.2000 -85.2000 HU 70 9 295
1896266N17298 1896 35 NA CS NOT_NAMED 1896-09-27 15:00:00 TS 19.8228 -84.3429 main 224 190 P____________P AL041896 19.8847 -83.9652 HU 102 3 19.6500 -85.3523 HU 75 8 310
1896266N17298 1896 35 NA CS NOT_NAMED 1896-09-27 18:00:00 TS 20.1000 -84.6333 105 hurdat_atl main 190 156 O____________O hurdat_atl AL041896 20.1000 -84.2000 HU 105 3 20.1000 -85.5000 HU 80 8 317
1896266N17298 1896 35 NA CS NOT_NAMED 1896-09-27 21:00:00 TS 20.3967 -84.9192 main 156 126 P____________P AL041896 20.3201 -84.5575 HU 107 3 20.5500 -85.6427 HU 85 8 320
1896266N17298 1896 35 NA CS NOT_NAMED 1896-09-28 00:00:00 TS 20.7333 -85.2000 110 hurdat_atl main 129 98 O____________O hurdat_atl AL041896 20.6000 -84.9000 HU 110 3 21.0000 -85.8000 HU 90 9 327
1896266N17298 1896 35 NA CS NOT_NAMED 1896-09-28 03:00:00 TS 21.1325 -85.4300 main 98 76 P____________P AL041896 20.9699 -85.1375 HU 110 3 21.4576 -86.0148 HU 92 9 336
1896266N17298 1896 35 NA CS NOT_NAMED 1896-09-28 06:00:00 TS 21.5667 -85.6000 110 hurdat_atl main 70 65 O____________O hurdat_atl AL041896 21.4000 -85.3000 HU 110 3 21.9000 -86.2000 HU 95 9 341
1896266N17298 1896 35 NA GM NOT_NAMED 1896-09-28 09:00:00 TS 21.9425 -85.7282 main 72 72 P____________P AL041896 21.7975 -85.4448 HU 110 3 22.2325 -86.2949 HU 102 9 350
1896266N17298 1896 35 NA GM NOT_NAMED 1896-09-28 12:00:00 TS 22.4333 -85.7667 110 hurdat_atl main 99 99 O____________O hurdat_atl AL041896 22.3000 -85.5000 HU 110 3 22.7000 -86.3000 MH 110 12 1
1896266N17298 1896 35 NA GM NOT_NAMED 1896-09-28 15:00:00 TS 23.1808 -85.7092 main 162 162 P____________P AL041896 23.0050 -85.4303 HU 110 3 23.5324 -86.2669 MH 110 16 7
1896266N17298 1896 35 NA GM NOT_NAMED 1896-09-28 18:00:00 TS 24.0333 -85.5667 110 hurdat_atl main 218 218 O____________O hurdat_atl AL041896 23.8000 -85.3000 HU 110 3 24.5000 -86.1000 MH 110 17 9
1896266N17298 1896 35 NA GM NOT_NAMED 1896-09-28 21:00:00 TS 24.8090 -85.4257 main 274 274 P____________P AL041896 24.5348 -85.2513 HU 110 3 25.3574 -85.7746 MH 110 16 13
1896266N17298 1896 35 NA GM NOT_NAMED 1896-09-29 00:00:00 TS 25.6000 -85.1667 110 hurdat_atl main 318 245 O____________O hurdat_atl AL041896 25.3000 -85.1000 HU 110 3 26.2000 -85.3000 MH 110 17 22
1896266N17298 1896 35 NA GM NOT_NAMED 1896-09-29 03:00:00 TS 26.3887 -84.7329 main 231 150 P____________P AL041896 26.0580 -84.7344 HU 110 3 27.0501 -84.7297 MH 110 19 28
1896266N17298 1896 35 NA GM NOT_NAMED 1896-09-29 06:00:00 TS 27.3000 -84.1667 110 960 hurdat_atl main 144 76 O____________O hurdat_atl AL041896 27.0000 -84.2000 HU 110 960 3 27.9000 -84.1000 MH 110 960 23 27
1896266N17298 1896 35 NA GM NOT_NAMED 1896-09-29 09:00:00 TS 28.4365 -83.5394 main 76 0 P____________P AL041896 28.3139 -83.5421 HU 110 960 3 28.6818 -83.5339 MH 105 961 26 26
1896266N17298 1896 35 NA GM NOT_NAMED 1896-09-29 11:00:00 TS 29.2216 -83.1088 110 960 hurdat_atl main 0 0 O____________P hurdat_atl AL041896 29.2000 -83.1000 L HU 110 960 3 29.2648 -83.1264 MH 101 962 26 26
1896266N17298 1896 35 NA NA NOT_NAMED 1896-09-29 12:00:00 TS 29.6000 -82.9000 100 963 hurdat_atl main 0 0 O____________O hurdat_atl AL041896 29.6000 -82.9000 HU 100 963 3 29.6000 -82.9000 MH 100 963 27 28
1896266N17298 1896 35 NA NA NOT_NAMED 1896-09-29 15:00:00 TS 30.8011 -82.1243 main 0 0 P____________P AL041896 30.8191 -82.1329 HU 92 968 2 30.7650 -82.1071 MH 92 968 30 29
1896266N17298 1896 35 NA NA NOT_NAMED 1896-09-29 18:00:00 TS 32.2000 -81.2000 85 973 hurdat_atl main 0 0 O____________O hurdat_atl AL041896 32.2000 -81.2000 HU 85 973 2 32.2000 -81.2000 HU 85 973 35 29
1896266N17298 1896 35 NA NA NOT_NAMED 1896-09-29 21:00:00 TS 33.8618 -80.1301 main 0 0 P____________P AL041896 33.8618 -80.1301 HU 77 980 1 33.8618 -80.1301 HU 77 980 39 25
1896266N17298 1896 35 NA NA NOT_NAMED 1896-09-30 00:00:00 TS 35.7000 -79.2000 70 988 hurdat_atl main 0 0 O____________O hurdat_atl AL041896 35.7000 -79.2000 HU 70 988 1 35.7000 -79.2000 HU 70 988 40 17
1896266N17298 1896 35 NA NA NOT_NAMED 1896-09-30 03:00:00 TS 37.6733 -78.6614 main 0 0 P____________P AL041896 37.6733 -78.6614 HU 65 987 1 37.6733 -78.6614 HU 65 987 38 8
1896266N17298 1896 35 NA NA NOT_NAMED 1896-09-30 06:00:00 MX 39.5000 -78.5000 60 987 hurdat_atl main 0 0 O____________O hurdat_atl AL041896 39.5000 -78.5000 EX 60 987 -4 39.5000 -78.5000 TS 60 987 32 0
1896266N17298 1896 35 NA NA NOT_NAMED 1896-09-30 09:00:00 MX 40.8882 -78.6593 main 0 0 P____________P AL041896 40.8882 -78.6593 EX 55 -4 40.8882 -78.6593 TS 55 25 351
1896266N17298 1896 35 NA NA NOT_NAMED 1896-09-30 12:00:00 ET 42.0000 -79.0000 50 hurdat_atl main 0 O____________O hurdat_atl AL041896 42.0000 -79.0000 EX 50 -4 42.0000 -79.0000 EX 50 23 347

IBTrACS Databaseについて

本データベースは、米国NOAAが公開する1842年以降の世界の熱帯低気圧のベストトラックデータアーカイブInternational Best Track Archive for Climate Stewardship (IBTrACS)を、ウェブで閲覧しやすい形式に変換したものです。

最終更新日:2021-10-27